createdAt,value
2022-10-23T00:05:14.699Z,0.00
2022-10-23T00:12:36.381Z,4.96
2022-10-23T00:16:17.948Z,3.33
2022-10-23T00:19:59.604Z,3.17
2022-10-23T00:31:01.360Z,1.70
2022-10-23T00:34:42.956Z,2.67
2022-10-23T00:45:44.712Z,0.00
2022-10-23T00:56:46.490Z,0.00
2022-10-23T01:07:48.195Z,0.00
2022-10-23T01:15:09.869Z,2.48
2022-10-23T01:18:51.475Z,3.98
2022-10-23T01:29:53.193Z,1.70
2022-10-23T01:40:54.952Z,0.00
2022-10-23T01:51:56.690Z,0.00
2022-10-23T02:02:58.469Z,2.82
2022-10-23T02:10:20.099Z,1.96
2022-10-23T02:17:42.158Z,2.22
2022-10-23T02:25:03.477Z,2.72
2022-10-23T02:36:05.183Z,0.00
2022-10-23T02:47:06.943Z,0.00
2022-10-23T02:58:08.710Z,3.73
2022-10-23T03:05:30.514Z,3.71
2022-10-23T03:16:32.240Z,0.00
2022-10-23T03:27:35.043Z,1.96
2022-10-23T03:38:36.746Z,0.00
2022-10-23T03:49:39.502Z,0.00
2022-10-23T04:00:41.214Z,0.00
2022-10-23T04:04:22.856Z,2.40
2022-10-23T04:08:04.450Z,2.09
2022-10-23T04:19:06.159Z,0.00
2022-10-23T04:30:07.930Z,0.00
2022-10-23T04:41:09.654Z,0.00
2022-10-23T04:52:11.419Z,0.00
2022-10-23T05:03:13.149Z,0.00
2022-10-23T05:14:16.330Z,0.00
2022-10-23T05:25:16.667Z,0.00
2022-10-23T05:28:58.291Z,2.29
2022-10-23T05:40:00.079Z,0.00
2022-10-23T05:43:41.683Z,2.75
2022-10-23T05:54:43.467Z,0.00
2022-10-23T06:05:45.395Z,0.00
2022-10-23T06:16:47.110Z,0.00
2022-10-23T06:27:48.872Z,0.00
2022-10-23T06:38:50.647Z,0.00
2022-10-23T06:49:52.344Z,0.00
2022-10-23T07:00:54.098Z,0.00
2022-10-23T07:11:55.794Z,0.00
2022-10-23T07:22:57.500Z,0.00
2022-10-23T07:33:59.278Z,0.00
2022-10-23T07:45:01.084Z,2.92
2022-10-23T07:56:02.885Z,3.13
2022-10-23T07:59:44.550Z,3.85
2022-10-23T08:03:26.146Z,3.53
2022-10-23T08:14:27.902Z,0.00
2022-10-23T08:18:09.461Z,2.09
2022-10-23T08:21:51.045Z,2.38
2022-10-23T08:32:52.803Z,0.00
2022-10-23T08:36:34.407Z,3.19
2022-10-23T08:43:56.075Z,4.18
2022-10-23T08:47:37.664Z,1.90
2022-10-23T08:58:39.477Z,0.00
2022-10-23T09:02:21.226Z,3.99
2022-10-23T09:06:02.672Z,3.31
2022-10-23T09:09:44.388Z,3.01
2022-10-23T09:17:06.206Z,2.67
2022-10-23T09:24:27.857Z,5.24
2022-10-23T09:28:09.595Z,3.82
2022-10-23T09:31:51.260Z,4.25
2022-10-23T09:35:32.979Z,3.78
2022-10-23T09:39:14.799Z,5.90
2022-10-23T09:42:56.667Z,4.90
2022-10-23T09:46:38.601Z,4.91
2022-10-23T09:50:20.466Z,6.57
2022-10-23T09:54:02.230Z,7.52
2022-10-23T09:57:44.094Z,2.35
2022-10-23T10:01:25.757Z,5.05
2022-10-23T10:05:07.417Z,4.22
2022-10-23T10:08:49.154Z,3.62
2022-10-23T10:12:30.830Z,4.89
2022-10-23T10:16:12.535Z,3.46
2022-10-23T10:19:54.332Z,3.83
2022-10-23T10:27:16.032Z,3.22
2022-10-23T10:30:57.839Z,4.06
2022-10-23T10:34:39.527Z,4.12
2022-10-23T10:38:21.115Z,2.22
2022-10-23T10:42:02.885Z,4.76
2022-10-23T10:45:44.516Z,3.22
2022-10-23T10:49:26.214Z,4.76
2022-10-23T10:56:47.908Z,3.75
2022-10-23T11:00:29.587Z,4.25
2022-10-23T11:04:11.273Z,3.34
2022-10-23T11:11:33.028Z,3.54
2022-10-23T11:15:14.625Z,3.77
2022-10-23T11:18:56.286Z,2.58
2022-10-23T11:22:37.967Z,2.65
2022-10-23T11:26:19.920Z,3.18
2022-10-23T11:30:01.379Z,3.44
2022-10-23T11:33:44.714Z,5.57
2022-10-23T11:37:25.052Z,8.12
2022-10-23T11:41:06.860Z,9.92
2022-10-23T11:44:48.813Z,10.85
2022-10-23T11:48:30.699Z,4.74
2022-10-23T11:52:12.535Z,10.37
2022-10-23T11:55:54.497Z,8.53
2022-10-23T11:59:36.406Z,8.22
2022-10-23T12:03:18.320Z,6.74
2022-10-23T12:07:00.119Z,5.31
2022-10-23T12:10:42.962Z,8.07
2022-10-23T12:14:24.876Z,7.86
2022-10-23T12:18:06.671Z,5.66
2022-10-23T12:21:48.654Z,10.24
2022-10-23T12:25:30.542Z,9.08
2022-10-23T12:29:12.486Z,8.18
2022-10-23T12:32:54.510Z,7.24
2022-10-23T12:36:36.360Z,9.45
2022-10-23T12:40:18.321Z,8.18
2022-10-23T12:44:01.177Z,5.55
2022-10-23T12:47:42.938Z,5.65
2022-10-23T12:51:24.841Z,9.45
2022-10-23T12:55:06.535Z,5.33
2022-10-23T12:58:48.531Z,6.24
2022-10-23T13:02:30.606Z,7.08
2022-10-23T13:06:12.489Z,7.26
2022-10-23T13:09:54.234Z,5.79
2022-10-23T13:13:36.107Z,5.55
2022-10-23T13:17:18.141Z,7.75
2022-10-23T13:24:42.105Z,7.20
2022-10-23T13:28:24.031Z,7.68
2022-10-23T13:32:05.872Z,6.82
2022-10-23T13:35:47.691Z,7.52
2022-10-23T13:39:29.656Z,6.20
2022-10-23T13:43:11.489Z,6.27
2022-10-23T13:46:53.311Z,6.53
2022-10-23T13:50:35.136Z,5.63
2022-10-23T13:54:17.098Z,7.79
2022-10-23T13:57:58.866Z,6.48
2022-10-23T14:01:40.958Z,8.11
2022-10-23T14:05:22.726Z,11.12
2022-10-23T14:09:04.551Z,7.43
2022-10-23T14:12:46.835Z,7.88
2022-10-23T14:16:28.600Z,6.00
2022-10-23T14:20:10.531Z,9.59
2022-10-23T14:23:52.592Z,8.77
2022-10-23T14:27:34.701Z,11.75
2022-10-23T14:31:16.711Z,12.07
2022-10-23T14:34:58.674Z,12.84
2022-10-23T14:38:40.554Z,7.51
2022-10-23T14:42:22.575Z,9.97
2022-10-23T14:46:04.600Z,11.58
2022-10-23T14:49:46.613Z,11.09
2022-10-23T14:53:28.566Z,10.66
2022-10-23T14:57:10.513Z,9.96
2022-10-23T15:00:52.530Z,12.25
2022-10-23T15:04:35.499Z,12.52
2022-10-23T15:08:17.559Z,10.59
2022-10-23T15:11:59.664Z,8.82
2022-10-23T15:15:41.673Z,10.33
2022-10-23T15:19:23.762Z,10.72
2022-10-23T15:23:05.619Z,10.12
2022-10-23T15:26:47.593Z,13.00
2022-10-23T15:30:29.678Z,10.10
2022-10-23T15:34:11.965Z,8.38
2022-10-23T15:37:54.171Z,10.14
2022-10-23T15:41:36.276Z,8.80
2022-10-23T15:45:18.325Z,10.96
2022-10-23T15:49:00.349Z,9.51
2022-10-23T15:52:42.920Z,10.73
2022-10-23T15:56:24.514Z,13.02
2022-10-23T16:00:06.535Z,14.24
2022-10-23T16:03:50.496Z,12.75
2022-10-23T16:07:32.513Z,10.68
2022-10-23T16:11:15.280Z,6.72
2022-10-23T16:14:57.007Z,6.48
2022-10-23T16:18:38.625Z,4.40
2022-10-23T16:22:20.317Z,5.86
2022-10-23T16:26:02.008Z,3.74
2022-10-23T16:29:43.682Z,5.74
2022-10-23T16:37:05.576Z,4.68
2022-10-23T16:40:47.425Z,1.99
2022-10-23T16:51:49.442Z,3.74
2022-10-23T16:59:11.323Z,3.03
2022-10-23T17:10:13.343Z,0.00
2022-10-23T17:13:59.034Z,2.96
2022-10-23T17:17:38.099Z,3.73
2022-10-23T17:25:06.692Z,2.62
2022-10-23T17:28:49.132Z,5.97
2022-10-23T17:32:30.974Z,2.87
2022-10-23T17:36:12.873Z,5.69
2022-10-23T17:43:34.894Z,2.74
2022-10-23T17:47:16.811Z,2.09
2022-10-23T17:50:59.632Z,2.29
2022-10-23T18:02:01.833Z,0.00
2022-10-23T18:05:43.512Z,1.99
2022-10-23T18:13:05.505Z,4.81
2022-10-23T18:24:07.571Z,0.00
2022-10-23T18:27:49.538Z,4.62
2022-10-23T18:31:31.496Z,8.54
2022-10-23T18:35:13.993Z,8.34
2022-10-23T18:42:37.782Z,3.07
2022-10-23T18:46:20.945Z,6.01
2022-10-23T18:50:03.113Z,5.48
2022-10-23T18:53:45.199Z,8.24
2022-10-23T18:57:27.450Z,7.60
2022-10-23T19:01:09.681Z,8.11
2022-10-23T19:04:51.478Z,8.07
2022-10-23T19:08:33.604Z,11.54
2022-10-23T19:12:15.884Z,11.64
2022-10-23T19:15:58.129Z,10.80
2022-10-23T19:19:40.364Z,11.35
2022-10-23T19:23:22.616Z,10.88
2022-10-23T19:27:04.845Z,7.63
2022-10-23T19:30:47.101Z,8.37
2022-10-23T19:34:29.285Z,7.42
2022-10-23T19:38:11.283Z,3.49
2022-10-23T19:41:53.152Z,3.27
2022-10-23T19:45:35.157Z,4.36
2022-10-23T19:49:17.232Z,4.37
2022-10-23T19:52:59.128Z,3.43
2022-10-23T19:56:40.844Z,4.48
2022-10-23T20:00:22.615Z,3.77
2022-10-23T20:07:44.978Z,3.06
2022-10-23T20:11:26.406Z,2.76
2022-10-23T20:15:08.401Z,6.85
2022-10-23T20:18:50.259Z,4.25
2022-10-23T20:22:32.077Z,2.48
2022-10-23T20:26:13.829Z,2.35
2022-10-23T20:29:55.612Z,2.35
2022-10-23T20:33:37.533Z,3.73
2022-10-23T20:37:19.417Z,5.43
2022-10-23T20:41:01.322Z,5.31
2022-10-23T20:52:03.200Z,0.00
2022-10-23T20:55:44.781Z,2.25
2022-10-23T21:07:08.459Z,3.04
2022-10-23T21:14:08.280Z,1.78
2022-10-23T21:17:49.998Z,4.07
2022-10-23T21:21:31.853Z,5.99
2022-10-23T21:25:13.757Z,8.23
2022-10-23T21:29:13.765Z,6.02
2022-10-23T21:32:37.577Z,6.23
2022-10-23T21:36:19.494Z,5.15
2022-10-23T21:40:01.263Z,4.39
2022-10-23T21:43:43.141Z,5.10
2022-10-23T21:47:24.886Z,5.14
2022-10-23T21:51:06.739Z,6.47
2022-10-23T21:54:48.636Z,5.81
2022-10-23T21:58:30.460Z,4.67
2022-10-23T22:02:12.428Z,4.95
2022-10-23T22:05:54.265Z,10.37
2022-10-23T22:09:36.198Z,7.27
2022-10-23T22:13:18.023Z,6.86
2022-10-23T22:16:59.897Z,8.52
2022-10-23T22:20:41.799Z,5.20
2022-10-23T22:24:23.692Z,5.50
2022-10-23T22:28:05.530Z,4.32
2022-10-23T22:31:49.647Z,5.17
2022-10-23T22:35:29.035Z,5.33
2022-10-23T22:39:10.914Z,6.31
2022-10-23T22:42:52.816Z,6.90
2022-10-23T22:46:34.435Z,5.75
2022-10-23T22:57:36.154Z,0.00
2022-10-23T23:08:37.927Z,0.00
2022-10-23T23:19:39.653Z,0.00
2022-10-23T23:27:02.344Z,2.38
2022-10-23T23:38:04.051Z,0.00
2022-10-23T23:49:05.804Z,0.00
